Terminal Aerodrome Forecast
Issued by NWS Memphis, TN

Home | Current Version | Previous Version | Text Only | Print | Product List | Glossary On
Versions: 1 2 3 4 5 6 7 8 9 10 11 12 13 14 15 16 17 18 19 20 21
000
FTUS44 KMEG 031738
TAFMKL
TAF
KMKL 031738Z 0318/0418 20011G17KT P6SM BKN007 OVC050
     FM040000 20008KT 5SM BR OVC003
     FM040300 21010KT 4SM BR VCSH OVC001
     FM040900 34012G18KT 3SM -RA BR OVC003
     FM041200 36012G18KT 3SM -RA BR OVC003=

USA.gov is the U.S. government's official web portal to all federal, state and local government web resources and services.